sensor_id;sensor_type;location;lat;lon;timestamp;pressure;altitude;pressure_sealevel;temperature;humidity
78625;BME280;67944;0.000;0.000;2023-03-01T05:47:36;101249.63;;;19.85;29.04
78625;BME280;67944;0.000;0.000;2023-03-01T05:50:02;101254.06;;;19.85;29.13
78625;BME280;67944;0.000;0.000;2023-03-01T05:52:27;101251.44;;;19.85;29.33
78625;BME280;67944;0.000;0.000;2023-03-01T05:54:52;101258.38;;;19.86;29.09
78625;BME280;67944;0.000;0.000;2023-03-01T05:57:18;101253.91;;;19.87;29.51
78625;BME280;67944;0.000;0.000;2023-03-01T05:59:43;101247.81;;;19.86;28.94
78625;BME280;67944;0.000;0.000;2023-03-01T06:02:10;101248.63;;;19.87;29.05
78625;BME280;67944;0.000;0.000;2023-03-01T06:04:35;101244.19;;;19.87;29.44
78625;BME280;67944;0.000;0.000;2023-03-01T06:07:01;101244.19;;;19.87;29.15
78625;BME280;67944;0.000;0.000;2023-03-01T06:09:26;101245.00;;;19.88;29.11
78625;BME280;67944;0.000;0.000;2023-03-01T06:11:52;101242.50;;;19.86;29.23
78625;BME280;67944;0.000;0.000;2023-03-01T06:14:17;101245.78;;;19.80;29.45
78625;BME280;67944;0.000;0.000;2023-03-01T06:16:43;101245.38;;;19.67;28.94
78625;BME280;67944;0.000;0.000;2023-03-01T06:19:08;101244.94;;;19.54;29.05
78625;BME280;67944;0.000;0.000;2023-03-01T06:21:33;101243.50;;;19.41;28.81
78625;BME280;67944;0.000;0.000;2023-03-01T06:23:59;101245.91;;;19.35;28.84
78625;BME280;67944;0.000;0.000;2023-03-01T06:26:24;101252.78;;;19.28;28.79
78625;BME280;67944;0.000;0.000;2023-03-01T06:28:50;101236.72;;;19.21;28.88
78625;BME280;67944;0.000;0.000;2023-03-01T06:31:15;101239.81;;;19.16;28.75
78625;BME280;67944;0.000;0.000;2023-03-01T06:33:41;101239.28;;;19.13;28.73
78625;BME280;67944;0.000;0.000;2023-03-01T06:36:07;101237.94;;;19.09;29.00
78625;BME280;67944;0.000;0.000;2023-03-01T06:38:33;101238.22;;;19.06;28.93
78625;BME280;67944;0.000;0.000;2023-03-01T06:40:59;101239.22;;;19.05;28.88
78625;BME280;67944;0.000;0.000;2023-03-01T06:43:24;101245.50;;;19.04;28.65
78625;BME280;67944;0.000;0.000;2023-03-01T06:45:50;101241.19;;;19.03;28.84
78625;BME280;67944;0.000;0.000;2023-03-01T06:48:15;101234.25;;;19.02;28.93
78625;BME280;67944;0.000;0.000;2023-03-01T06:50:41;101242.31;;;19.00;28.72
78625;BME280;67944;0.000;0.000;2023-03-01T06:53:06;101236.59;;;19.05;28.94
78625;BME280;67944;0.000;0.000;2023-03-01T06:55:32;101232.66;;;19.09;28.85
78625;BME280;67944;0.000;0.000;2023-03-01T06:57:59;101232.34;;;19.12;29.06
78625;BME280;67944;0.000;0.000;2023-03-01T07:00:26;101235.53;;;19.15;28.88
78625;BME280;67944;0.000;0.000;2023-03-01T07:02:52;101239.53;;;19.20;29.05
78625;BME280;67944;0.000;0.000;2023-03-01T07:05:17;101234.09;;;19.21;28.59
78625;BME280;67944;0.000;0.000;2023-03-01T07:07:44;101231.16;;;19.24;28.93
78625;BME280;67944;0.000;0.000;2023-03-01T07:10:10;101236.09;;;19.27;29.19
78625;BME280;67944;0.000;0.000;2023-03-01T07:12:36;101228.03;;;19.29;28.53
78625;BME280;67944;0.000;0.000;2023-03-01T07:15:02;101229.53;;;19.31;29.22
78625;BME280;67944;0.000;0.000;2023-03-01T07:17:28;101225.09;;;19.32;28.86
78625;BME280;67944;0.000;0.000;2023-03-01T07:19:53;101224.94;;;19.33;28.66
78625;BME280;67944;0.000;0.000;2023-03-01T07:22:19;101223.13;;;19.34;28.86
78625;BME280;67944;0.000;0.000;2023-03-01T07:24:44;101223.81;;;19.36;28.63
78625;BME280;67944;0.000;0.000;2023-03-01T07:27:09;101221.16;;;19.36;28.98
78625;BME280;67944;0.000;0.000;2023-03-01T07:29:35;101213.25;;;19.36;29.17
78625;BME280;67944;0.000;0.000;2023-03-01T07:32:02;101216.72;;;19.36;28.94
78625;BME280;67944;0.000;0.000;2023-03-01T07:34:28;101223.50;;;19.39;29.21
78625;BME280;67944;0.000;0.000;2023-03-01T07:36:54;101213.63;;;19.41;28.51
78625;BME280;67944;0.000;0.000;2023-03-01T07:39:20;101210.38;;;19.47;29.09
78625;BME280;67944;0.000;0.000;2023-03-01T07:41:48;101218.34;;;19.55;29.06
78625;BME280;67944;0.000;0.000;2023-03-01T07:44:13;101202.88;;;19.60;28.74
78625;BME280;67944;0.000;0.000;2023-03-01T07:46:40;101200.44;;;19.67;29.52
78625;BME280;67944;0.000;0.000;2023-03-01T07:49:06;101197.97;;;19.73;29.52
78625;BME280;67944;0.000;0.000;2023-03-01T07:51:31;101194.56;;;19.81;29.30
78625;BME280;67944;0.000;0.000;2023-03-01T07:53:57;101200.91;;;19.88;28.88
78625;BME280;67944;0.000;0.000;2023-03-01T07:56:22;101202.22;;;19.92;29.21
78625;BME280;67944;0.000;0.000;2023-03-01T07:58:48;101204.69;;;19.94;28.91
78625;BME280;67944;0.000;0.000;2023-03-01T08:01:18;101197.59;;;19.94;29.00
78625;BME280;67944;0.000;0.000;2023-03-01T08:03:44;101194.66;;;19.97;28.84
78625;BME280;67944;0.000;0.000;2023-03-01T08:06:11;101197.66;;;20.02;29.28
78625;BME280;67944;0.000;0.000;2023-03-01T08:08:37;101180.84;;;20.11;29.33
78625;BME280;67944;0.000;0.000;2023-03-01T08:11:04;101181.69;;;20.20;29.35
78625;BME280;67944;0.000;0.000;2023-03-01T08:13:31;101180.56;;;20.31;29.57
78625;BME280;67944;0.000;0.000;2023-03-01T08:16:07;101180.63;;;20.39;29.43
78625;BME280;67944;0.000;0.000;2023-03-01T08:18:32;101182.97;;;20.50;29.03
78625;BME280;67944;0.000;0.000;2023-03-01T08:21:04;101177.53;;;20.60;29.47
78625;BME280;67944;0.000;0.000;2023-03-01T08:23:30;101177.38;;;20.69;29.51
78625;BME280;67944;0.000;0.000;2023-03-01T08:26:03;101182.69;;;20.77;29.54
78625;BME280;67944;0.000;0.000;2023-03-01T08:28:29;101178.72;;;20.81;29.01
78625;BME280;67944;0.000;0.000;2023-03-01T08:30:54;101173.91;;;20.85;29.21
78625;BME280;67944;0.000;0.000;2023-03-01T08:33:20;101172.09;;;20.85;29.52
78625;BME280;67944;0.000;0.000;2023-03-01T08:35:45;101179.06;;;20.86;29.53
78625;BME280;67944;0.000;0.000;2023-03-01T08:38:11;101176.41;;;20.86;28.71
78625;BME280;67944;0.000;0.000;2023-03-01T08:40:36;101175.41;;;20.87;29.00
78625;BME280;67944;0.000;0.000;2023-03-01T08:43:01;101184.34;;;20.86;29.18
78625;BME280;67944;0.000;0.000;2023-03-01T08:45:27;101171.78;;;20.88;29.05
78625;BME280;67944;0.000;0.000;2023-03-01T08:47:52;101163.81;;;20.88;29.43
78625;BME280;67944;0.000;0.000;2023-03-01T08:50:18;101161.84;;;20.91;29.47
78625;BME280;67944;0.000;0.000;2023-03-01T08:52:44;101152.09;;;20.91;29.50
78625;BME280;67944;0.000;0.000;2023-03-01T08:55:09;101154.56;;;20.93;29.46
78625;BME280;67944;0.000;0.000;2023-03-01T08:57:34;101149.28;;;20.93;28.75
78625;BME280;67944;0.000;0.000;2023-03-01T09:00:00;101136.69;;;20.95;29.50
78625;BME280;67944;0.000;0.000;2023-03-01T09:02:26;101137.53;;;20.95;29.65
78625;BME280;67944;0.000;0.000;2023-03-01T09:04:51;101148.94;;;20.96;29.00
78625;BME280;67944;0.000;0.000;2023-03-01T09:07:16;101146.97;;;20.98;29.13
78625;BME280;67944;0.000;0.000;2023-03-01T09:09:42;101141.66;;;20.98;29.27
78625;BME280;67944;0.000;0.000;2023-03-01T09:12:07;101143.97;;;21.01;28.85
78625;BME280;67944;0.000;0.000;2023-03-01T09:14:33;101133.19;;;21.02;29.29
78625;BME280;67944;0.000;0.000;2023-03-01T09:16:58;101136.69;;;21.03;28.87
78625;BME280;67944;0.000;0.000;2023-03-01T09:19:28;101144.47;;;21.04;29.46
78625;BME280;67944;0.000;0.000;2023-03-01T09:21:53;101133.19;;;21.02;29.35
78625;BME280;67944;0.000;0.000;2023-03-01T09:24:22;101112.84;;;20.86;29.52
78625;BME280;67944;0.000;0.000;2023-03-01T09:26:48;101121.13;;;20.67;28.62
78625;BME280;67944;0.000;0.000;2023-03-01T09:29:15;101121.78;;;20.53;28.79
78625;BME280;67944;0.000;0.000;2023-03-01T09:31:41;101114.31;;;20.40;29.42
78625;BME280;67944;0.000;0.000;2023-03-01T09:34:08;101117.91;;;20.31;29.17
78625;BME280;67944;0.000;0.000;2023-03-01T09:36:34;101125.66;;;20.25;29.17
78625;BME280;67944;0.000;0.000;2023-03-01T09:39:02;101117.53;;;20.18;29.11
78625;BME280;67944;0.000;0.000;2023-03-01T09:44:31;101102.50;;;20.10;28.93
78625;BME280;67944;0.000;0.000;2023-03-01T09:47:00;101110.91;;;20.06;28.82
78625;BME280;67944;0.000;0.000;2023-03-01T09:49:30;101103.28;;;20.03;28.94
78625;BME280;67944;0.000;0.000;2023-03-01T09:52:09;101111.38;;;20.01;29.23
78625;BME280;67944;0.000;0.000;2023-03-01T09:54:37;101108.06;;;19.99;29.27
78625;BME280;67944;0.000;0.000;2023-03-01T09:57:35;101108.22;;;19.98;28.91
78625;BME280;67944;0.000;0.000;2023-03-01T10:00:33;101108.38;;;19.96;28.92
78625;BME280;67944;0.000;0.000;2023-03-01T10:06:20;101116.63;;;19.93;29.22
78625;BME280;67944;0.000;0.000;2023-03-01T10:08:48;101102.59;;;19.93;29.71
78625;BME280;67944;0.000;0.000;2023-03-01T10:11:24;101118.28;;;19.94;29.17
78625;BME280;67944;0.000;0.000;2023-03-01T10:13:59;101105.06;;;19.94;29.10
78625;BME280;67944;0.000;0.000;2023-03-01T10:16:50;101102.44;;;19.94;29.09
78625;BME280;67944;0.000;0.000;2023-03-01T10:19:30;101091.03;;;19.94;29.13
78625;BME280;67944;0.000;0.000;2023-03-01T10:22:05;101078.63;;;19.94;29.59
78625;BME280;67944;0.000;0.000;2023-03-01T10:24:36;101086.56;;;19.94;29.65
78625;BME280;67944;0.000;0.000;2023-03-01T10:27:24;101080.78;;;19.91;29.56
78625;BME280;67944;0.000;0.000;2023-03-01T10:30:05;101077.81;;;19.94;29.60
78625;BME280;67944;0.000;0.000;2023-03-01T10:32:34;101083.25;;;19.92;29.40
78625;BME280;67944;0.000;0.000;2023-03-01T10:35:00;101078.78;;;19.93;29.38
78625;BME280;67944;0.000;0.000;2023-03-01T10:37:25;101079.63;;;19.93;29.54
78625;BME280;67944;0.000;0.000;2023-03-01T10:40:03;101073.34;;;19.94;29.29
78625;BME280;67944;0.000;0.000;2023-03-01T10:42:48;101068.22;;;19.93;29.77
78625;BME280;67944;0.000;0.000;2023-03-01T10:50:39;101056.34;;;19.97;29.85
78625;BME280;67944;0.000;0.000;2023-03-01T10:53:21;101046.09;;;19.94;29.77
78625;BME280;67944;0.000;0.000;2023-03-01T10:55:58;101062.81;;;20.02;29.83
78625;BME280;67944;0.000;0.000;2023-03-01T10:58:24;101048.59;;;20.03;29.89
78625;BME280;67944;0.000;0.000;2023-03-01T11:00:53;101044.97;;;20.04;30.04
78625;BME280;67944;0.000;0.000;2023-03-01T11:03:28;101039.53;;;20.06;29.30
78625;BME280;67944;0.000;0.000;2023-03-01T11:06:20;101032.41;;;20.06;29.09
78625;BME280;67944;0.000;0.000;2023-03-01T11:08:49;101028.91;;;19.98;29.71
78625;BME280;67944;0.000;0.000;2023-03-01T11:11:31;101024.28;;;19.83;29.42
78625;BME280;67944;0.000;0.000;2023-03-01T11:16:42;101006.91;;;19.81;28.99
78625;BME280;67944;0.000;0.000;2023-03-01T11:22:22;100998.66;;;19.84;29.06
78625;BME280;67944;0.000;0.000;2023-03-01T11:24:31;100999.34;;;19.86;29.34
78625;BME280;67944;0.000;0.000;2023-03-01T11:27:03;101000.81;;;19.89;29.38
78625;BME280;67944;0.000;0.000;2023-03-01T11:29:38;100999.69;;;19.91;28.98
78625;BME280;67944;0.000;0.000;2023-03-01T11:32:09;100996.03;;;19.92;28.75
78625;BME280;67944;0.000;0.000;2023-03-01T11:37:39;100994.72;;;19.96;28.75
78625;BME280;67944;0.000;0.000;2023-03-01T11:40:13;100999.00;;;19.97;29.35
78625;BME280;67944;0.000;0.000;2023-03-01T11:43:09;100979.34;;;20.00;29.10
78625;BME280;67944;0.000;0.000;2023-03-01T11:48:50;100975.91;;;20.07;29.13
78625;BME280;67944;0.000;0.000;2023-03-01T11:51:37;100983.34;;;20.12;29.53
78625;BME280;67944;0.000;0.000;2023-03-01T11:57:33;100972.91;;;20.18;29.29
78625;BME280;67944;0.000;0.000;2023-03-01T12:06:24;100949.28;;;20.25;29.46
78625;BME280;67944;0.000;0.000;2023-03-01T12:14:59;100935.56;;;20.30;29.27
78625;BME280;67944;0.000;0.000;2023-03-01T12:21:03;100928.13;;;20.33;28.80
78625;BME280;67944;0.000;0.000;2023-03-01T12:50:40;100868.28;;;20.40;29.30
78625;BME280;67944;0.000;0.000;2023-03-01T12:53:39;100863.00;;;20.40;28.93
78625;BME280;67944;0.000;0.000;2023-03-01T12:56:08;100850.59;;;20.41;28.79
78625;BME280;67944;0.000;0.000;2023-03-01T13:09:19;100824.63;;;20.44;28.57
78625;BME280;67944;0.000;0.000;2023-03-01T13:11:48;100830.75;;;20.45;29.25
78625;BME280;67944;0.000;0.000;2023-03-01T13:16:46;100820.81;;;20.47;28.79
78625;BME280;67944;0.000;0.000;2023-03-01T13:19:26;100819.81;;;20.48;29.41
78625;BME280;67944;0.000;0.000;2023-03-01T13:21:53;100814.53;;;20.48;28.82
78625;BME280;67944;0.000;0.000;2023-03-01T13:24:38;100828.41;;;20.50;29.39
78625;BME280;67944;0.000;0.000;2023-03-01T13:29:53;100824.78;;;20.51;28.64
78625;BME280;67944;0.000;0.000;2023-03-01T13:34:51;100814.84;;;20.53;29.11
78625;BME280;67944;0.000;0.000;2023-03-01T13:37:23;100817.31;;;20.55;29.37
78625;BME280;67944;0.000;0.000;2023-03-01T13:39:51;100813.03;;;20.53;28.91
78625;BME280;67944;0.000;0.000;2023-03-01T13:42:37;100803.28;;;20.54;28.43
78625;BME280;67944;0.000;0.000;2023-03-01T13:45:40;100796.34;;;20.53;29.16
78625;BME280;67944;0.000;0.000;2023-03-01T13:48:14;100806.09;;;20.52;28.66
78625;BME280;67944;0.000;0.000;2023-03-01T13:50:50;100803.63;;;20.51;28.81
78625;BME280;67944;0.000;0.000;2023-03-01T13:53:23;100787.75;;;20.51;29.25
78625;BME280;67944;0.000;0.000;2023-03-01T13:55:58;100784.94;;;20.52;29.19
78625;BME280;67944;0.000;0.000;2023-03-01T13:58:33;100787.75;;;20.51;29.15
78625;BME280;67944;0.000;0.000;2023-03-01T14:03:52;100778.16;;;20.50;28.78
78625;BME280;67944;0.000;0.000;2023-03-01T14:06:27;100773.50;;;20.52;28.87
78625;BME280;67944;0.000;0.000;2023-03-01T14:09:17;100787.75;;;20.51;28.86
78625;BME280;67944;0.000;0.000;2023-03-01T14:17:40;100777.16;;;20.51;28.92
78625;BME280;67944;0.000;0.000;2023-03-01T14:20:42;100769.22;;;20.51;28.88
78625;BME280;67944;0.000;0.000;2023-03-01T14:23:19;100770.03;;;20.51;28.61
78625;BME280;67944;0.000;0.000;2023-03-01T14:25:54;100764.59;;;20.53;29.46
78625;BME280;67944;0.000;0.000;2023-03-01T14:28:29;100765.25;;;20.55;29.56
78625;BME280;67944;0.000;0.000;2023-03-01T14:30:58;100755.28;;;20.57;28.96
78625;BME280;67944;0.000;0.000;2023-03-01T14:33:30;100765.84;;;20.57;28.74
78625;BME280;67944;0.000;0.000;2023-03-01T14:36:10;100758.75;;;20.58;29.15
78625;BME280;67944;0.000;0.000;2023-03-01T14:38:42;100752.28;;;20.60;28.94
78625;BME280;67944;0.000;0.000;2023-03-01T14:41:15;100753.28;;;20.59;29.23
78625;BME280;67944;0.000;0.000;2023-03-01T14:43:45;100759.22;;;20.61;29.15
78625;BME280;67944;0.000;0.000;2023-03-01T14:46:35;100758.41;;;20.61;29.77
78625;BME280;67944;0.000;0.000;2023-03-01T14:49:11;100755.25;;;20.65;29.75
78625;BME280;67944;0.000;0.000;2023-03-01T14:51:40;100751.91;;;20.71;29.73
78625;BME280;67944;0.000;0.000;2023-03-01T14:54:42;100750.22;;;20.78;30.07
78625;BME280;67944;0.000;0.000;2023-03-01T14:57:15;100752.16;;;20.84;30.30
78625;BME280;67944;0.000;0.000;2023-03-01T14:59:43;100749.16;;;20.87;30.11
78625;BME280;67944;0.000;0.000;2023-03-01T15:02:15;100745.19;;;20.92;30.11
78625;BME280;67944;0.000;0.000;2023-03-01T15:04:51;100740.88;;;20.91;30.00
78625;BME280;67944;0.000;0.000;2023-03-01T15:07:18;100736.75;;;20.88;30.20
78625;BME280;67944;0.000;0.000;2023-03-01T15:09:45;100734.44;;;20.85;29.81
78625;BME280;67944;0.000;0.000;2023-03-01T15:14:56;100739.81;;;20.77;29.89
78625;BME280;67944;0.000;0.000;2023-03-01T15:17:31;100738.03;;;20.69;30.02
78625;BME280;67944;0.000;0.000;2023-03-01T15:19:59;100735.06;;;20.64;30.18
78625;BME280;67944;0.000;0.000;2023-03-01T15:22:26;100749.31;;;20.63;30.17
78625;BME280;67944;0.000;0.000;2023-03-01T15:24:53;100749.66;;;20.60;30.32
78625;BME280;67944;0.000;0.000;2023-03-01T15:27:21;100749.66;;;20.60;30.84
78625;BME280;67944;0.000;0.000;2023-03-01T15:29:59;100748.00;;;20.59;30.90
78625;BME280;67944;0.000;0.000;2023-03-01T15:34:53;100763.22;;;20.57;30.91
78625;BME280;67944;0.000;0.000;2023-03-01T15:37:45;100764.25;;;20.56;30.85
78625;BME280;67944;0.000;0.000;2023-03-01T15:40:32;100766.22;;;20.54;30.59
78625;BME280;67944;0.000;0.000;2023-03-01T15:42:59;100763.75;;;20.52;30.70
78625;BME280;67944;0.000;0.000;2023-03-01T15:45:27;100762.94;;;20.52;31.01
78625;BME280;67944;0.000;0.000;2023-03-01T15:47:56;100761.28;;;20.51;31.13
78625;BME280;67944;0.000;0.000;2023-03-01T15:50:33;100770.22;;;20.50;30.88
78625;BME280;67944;0.000;0.000;2023-03-01T15:53:04;100775.50;;;20.50;30.86
78625;BME280;67944;0.000;0.000;2023-03-01T15:55:32;100779.16;;;20.49;30.72
78625;BME280;67944;0.000;0.000;2023-03-01T15:57:59;100782.13;;;20.46;30.61
78625;BME280;67944;0.000;0.000;2023-03-01T16:00:28;100780.31;;;20.46;30.83
78625;BME280;67944;0.000;0.000;2023-03-01T16:02:54;100777.00;;;20.44;30.73
78625;BME280;67944;0.000;0.000;2023-03-01T16:05:24;100774.53;;;20.43;30.54
78625;BME280;67944;0.000;0.000;2023-03-01T16:07:51;100782.47;;;20.43;31.30
78625;BME280;67944;0.000;0.000;2023-03-01T16:10:17;100777.34;;;20.41;31.13
78625;BME280;67944;0.000;0.000;2023-03-01T16:12:43;100768.75;;;20.39;31.33
78625;BME280;67944;0.000;0.000;2023-03-01T16:15:22;100773.22;;;20.39;31.32
78625;BME280;67944;0.000;0.000;2023-03-01T16:17:48;100768.91;;;20.38;31.07
78625;BME280;67944;0.000;0.000;2023-03-01T16:20:14;100772.56;;;20.37;31.31
78625;BME280;67944;0.000;0.000;2023-03-01T16:22:44;100776.16;;;20.36;31.12
78625;BME280;67944;0.000;0.000;2023-03-01T16:25:12;100771.91;;;20.35;31.13
78625;BME280;67944;0.000;0.000;2023-03-01T16:27:42;100763.13;;;20.34;31.50
78625;BME280;67944;0.000;0.000;2023-03-01T16:30:08;100777.19;;;20.35;31.42
78625;BME280;67944;0.000;0.000;2023-03-01T16:32:38;100784.78;;;20.38;31.71
78625;BME280;67944;0.000;0.000;2023-03-01T16:35:05;100786.28;;;20.40;31.23
78625;BME280;67944;0.000;0.000;2023-03-01T16:37:32;100794.03;;;20.42;31.31
78625;BME280;67944;0.000;0.000;2023-03-01T16:39:58;100789.09;;;20.39;31.18
78625;BME280;67944;0.000;0.000;2023-03-01T16:42:24;100785.63;;;20.30;31.64
78625;BME280;67944;0.000;0.000;2023-03-01T16:44:56;100787.44;;;20.30;31.54
78625;BME280;67944;0.000;0.000;2023-03-01T16:47:21;100792.41;;;20.33;32.04
78625;BME280;67944;0.000;0.000;2023-03-01T16:49:47;100792.03;;;20.36;31.89
78625;BME280;67944;0.000;0.000;2023-03-01T16:52:12;100789.91;;;20.39;31.78
78625;BME280;67944;0.000;0.000;2023-03-01T16:54:38;100790.41;;;20.43;31.31
78625;BME280;67944;0.000;0.000;2023-03-01T16:57:04;100795.34;;;20.46;31.70
78625;BME280;67944;0.000;0.000;2023-03-01T16:59:30;100799.31;;;20.50;31.72
78625;BME280;67944;0.000;0.000;2023-03-01T17:01:55;100791.03;;;20.53;32.39
78625;BME280;67944;0.000;0.000;2023-03-01T17:04:21;100791.69;;;20.55;31.94
78625;BME280;67944;0.000;0.000;2023-03-01T17:06:46;100794.97;;;20.57;32.29
78625;BME280;67944;0.000;0.000;2023-03-01T17:09:14;100789.50;;;20.59;32.12
78625;BME280;67944;0.000;0.000;2023-03-01T17:11:42;100798.59;;;20.64;32.35
78625;BME280;67944;0.000;0.000;2023-03-01T17:14:07;100797.41;;;20.67;32.51
78625;BME280;67944;0.000;0.000;2023-03-01T17:16:33;100796.09;;;20.71;32.62
78625;BME280;67944;0.000;0.000;2023-03-01T17:18:58;100796.75;;;20.73;32.10
78625;BME280;67944;0.000;0.000;2023-03-01T17:21:24;100799.22;;;20.74;31.98
78625;BME280;67944;0.000;0.000;2023-03-01T17:23:56;100810.13;;;20.71;32.65
78625;BME280;67944;0.000;0.000;2023-03-01T17:26:21;100801.88;;;20.66;32.03
78625;BME280;67944;0.000;0.000;2023-03-01T17:28:47;100799.09;;;20.60;31.61
78625;BME280;67944;0.000;0.000;2023-03-01T17:31:18;100794.50;;;20.53;32.23
78625;BME280;67944;0.000;0.000;2023-03-01T17:33:44;100803.63;;;20.51;31.93
78625;BME280;67944;0.000;0.000;2023-03-01T17:36:09;100803.13;;;20.47;31.40
78625;BME280;67944;0.000;0.000;2023-03-01T17:38:35;100805.94;;;20.46;31.00
78625;BME280;67944;0.000;0.000;2023-03-01T17:41:02;100785.28;;;20.41;31.63
78625;BME280;67944;0.000;0.000;2023-03-01T17:43:28;100789.91;;;20.39;31.35
78625;BME280;67944;0.000;0.000;2023-03-01T17:45:55;100781.97;;;20.39;31.29
78625;BME280;67944;0.000;0.000;2023-03-01T17:48:21;100779.16;;;20.41;31.50
78625;BME280;67944;0.000;0.000;2023-03-01T17:50:46;100783.47;;;20.42;30.84
78625;BME280;67944;0.000;0.000;2023-03-01T17:53:12;100775.69;;;20.40;31.30
78625;BME280;67944;0.000;0.000;2023-03-01T17:55:39;100778.16;;;20.42;31.39
78625;BME280;67944;0.000;0.000;2023-03-01T17:58:06;100776.53;;;20.41;30.57
78625;BME280;67944;0.000;0.000;2023-03-01T18:00:32;100775.53;;;20.42;30.76
78625;BME280;67944;0.000;0.000;2023-03-01T18:02:59;100775.34;;;20.43;31.15
78625;BME280;67944;0.000;0.000;2023-03-01T18:05:26;100785.13;;;20.43;31.05
78625;BME280;67944;0.000;0.000;2023-03-01T18:07:52;100783.94;;;20.45;30.92
78625;BME280;67944;0.000;0.000;2023-03-01T18:10:19;100778.16;;;20.42;30.61
78625;BME280;67944;0.000;0.000;2023-03-01T18:12:45;100788.41;;;20.45;31.30
78625;BME280;67944;0.000;0.000;2023-03-01T18:15:11;100787.41;;;20.46;31.27
78625;BME280;67944;0.000;0.000;2023-03-01T18:17:36;100788.41;;;20.45;30.67
78625;BME280;67944;0.000;0.000;2023-03-01T18:20:03;100793.03;;;20.43;30.95
78625;BME280;67944;0.000;0.000;2023-03-01T18:22:30;100784.47;;;20.41;31.21
78625;BME280;67944;0.000;0.000;2023-03-01T18:24:55;100786.44;;;20.39;31.15
78625;BME280;67944;0.000;0.000;2023-03-01T18:27:21;100783.97;;;20.37;30.68
78625;BME280;67944;0.000;0.000;2023-03-01T18:29:46;100786.75;;;20.36;30.60
78625;BME280;67944;0.000;0.000;2023-03-01T18:32:12;100783.28;;;20.35;30.66
78625;BME280;67944;0.000;0.000;2023-03-01T18:34:37;100778.19;;;20.34;31.17
78625;BME280;67944;0.000;0.000;2023-03-01T18:37:03;100777.53;;;20.32;30.74
78625;BME280;67944;0.000;0.000;2023-03-01T18:39:28;100787.44;;;20.30;30.79
78625;BME280;67944;0.000;0.000;2023-03-01T18:41:54;100793.91;;;20.27;30.73
78625;BME280;67944;0.000;0.000;2023-03-01T18:44:19;100806.31;;;20.27;30.75
78625;BME280;67944;0.000;0.000;2023-03-01T18:46:45;100795.72;;;20.27;31.02
78625;BME280;67944;0.000;0.000;2023-03-01T18:49:12;100797.53;;;20.26;30.37
78625;BME280;67944;0.000;0.000;2023-03-01T18:51:39;100800.19;;;20.26;30.91
78625;BME280;67944;0.000;0.000;2023-03-01T18:54:05;100795.88;;;20.25;30.60
78625;BME280;67944;0.000;0.000;2023-03-01T18:56:33;100803.81;;;20.25;30.43
78625;BME280;67944;0.000;0.000;2023-03-01T18:58:59;100799.53;;;20.24;30.56
78625;BME280;67944;0.000;0.000;2023-03-01T19:01:27;100800.53;;;20.23;31.04
78625;BME280;67944;0.000;0.000;2023-03-01T19:03:54;100796.22;;;20.22;30.92
78625;BME280;67944;0.000;0.000;2023-03-01T19:06:21;100806.81;;;20.22;30.83
78625;BME280;67944;0.000;0.000;2023-03-01T19:08:48;100813.91;;;20.22;30.90
78625;BME280;67944;0.000;0.000;2023-03-01T19:11:15;100813.09;;;20.21;30.83
78625;BME280;67944;0.000;0.000;2023-03-01T19:13:45;100819.19;;;20.22;30.18
78625;BME280;67944;0.000;0.000;2023-03-01T19:16:15;100817.72;;;20.19;30.48
78625;BME280;67944;0.000;0.000;2023-03-01T19:18:42;100816.88;;;20.18;30.63
78625;BME280;67944;0.000;0.000;2023-03-01T19:21:10;100814.25;;;20.18;30.41
78625;BME280;67944;0.000;0.000;2023-03-01T19:23:37;100806.47;;;20.17;30.62
78625;BME280;67944;0.000;0.000;2023-03-01T19:26:11;100809.28;;;20.15;30.02
78625;BME280;67944;0.000;0.000;2023-03-01T19:28:37;100810.94;;;20.16;30.30
78625;BME280;67944;0.000;0.000;2023-03-01T19:31:08;100794.25;;;20.16;30.49
78625;BME280;67944;0.000;0.000;2023-03-01T19:33:34;100803.19;;;20.15;30.64
78625;BME280;67944;0.000;0.000;2023-03-01T19:36:01;100802.34;;;20.14;30.75
78625;BME280;67944;0.000;0.000;2023-03-01T19:38:27;100800.72;;;20.13;30.24
78625;BME280;67944;0.000;0.000;2023-03-01T19:40:54;100802.53;;;20.13;29.83
78625;BME280;67944;0.000;0.000;2023-03-01T19:43:20;100804.38;;;20.12;30.03
78625;BME280;67944;0.000;0.000;2023-03-01T19:45:52;100808.81;;;20.12;30.48
78625;BME280;67944;0.000;0.000;2023-03-01T19:48:18;100808.16;;;20.10;29.94
78625;BME280;67944;0.000;0.000;2023-03-01T19:50:44;100797.59;;;20.10;30.13
78625;BME280;67944;0.000;0.000;2023-03-01T19:53:11;100804.69;;;20.09;30.39
78625;BME280;67944;0.000;0.000;2023-03-01T19:55:37;100798.59;;;20.09;30.37
78625;BME280;67944;0.000;0.000;2023-03-01T19:58:03;100803.03;;;20.08;29.69
78625;BME280;67944;0.000;0.000;2023-03-01T20:00:33;100802.22;;;20.08;30.45
78625;BME280;67944;0.000;0.000;2023-03-01T20:02:59;100799.56;;;20.08;29.96
78625;BME280;67944;0.000;0.000;2023-03-01T20:05:25;100794.44;;;20.06;29.71
78625;BME280;67944;0.000;0.000;2023-03-01T20:07:53;100798.09;;;20.05;30.00
78625;BME280;67944;0.000;0.000;2023-03-01T20:10:19;100801.56;;;20.06;30.20
78625;BME280;67944;0.000;0.000;2023-03-01T20:12:44;100797.09;;;20.06;29.75
78625;BME280;67944;0.000;0.000;2023-03-01T20:15:10;100797.09;;;20.06;30.13
78625;BME280;67944;0.000;0.000;2023-03-01T20:17:35;100799.75;;;20.06;29.44
78625;BME280;67944;0.000;0.000;2023-03-01T20:20:01;100798.09;;;20.05;29.55
78625;BME280;67944;0.000;0.000;2023-03-01T20:22:26;100793.63;;;20.06;29.91
78625;BME280;67944;0.000;0.000;2023-03-01T20:24:52;100796.44;;;20.04;29.64
78625;BME280;67944;0.000;0.000;2023-03-01T20:27:17;100796.44;;;20.04;30.14
78625;BME280;67944;0.000;0.000;2023-03-01T20:29:43;100798.25;;;20.04;29.55
78625;BME280;67944;0.000;0.000;2023-03-01T20:32:10;100792.97;;;20.04;29.88
78625;BME280;67944;0.000;0.000;2023-03-01T20:34:36;100791.97;;;20.05;30.21
78625;BME280;67944;0.000;0.000;2023-03-01T20:37:02;100781.56;;;20.03;29.94
78625;BME280;67944;0.000;0.000;2023-03-01T20:39:28;100791.16;;;20.04;29.74